Time;durP1;ratioP1;P1;durP2;ratioP2;P2;SDS_P1;SDS_P2;PMS_P1;PMS_P2;Temp;Humidity;BMP_temperature;BMP_pressure;BME280_temperature;BME280_humidity;BME280_pressure;Samples;Min_cycle;Max_cycle;Signal;HPM_P1;HPM_P2
2021/07/14 00:01:37;;;;;;;2.50;2.30;;;21.60;44.10;;;;;;4822099;29;21027;-81
2021/07/14 00:04:08;;;;;;;2.90;2.73;;;21.50;44.00;;;;;;4805689;29;20489;-81
2021/07/14 00:07:03;;;;;;;2.57;2.47;;;21.60;44.20;;;;;;4816074;29;20537;-80
2021/07/14 00:10:07;;;;;;;2.90;2.70;;;21.50;44.10;;;;;;4732969;29;20559;-81
2021/07/14 00:23:42;;;;;;;;;;;;;;;;;;;;;
2021/07/14 00:37:17;;;;;;;2.30;2.20;;;21.50;44.00;;;;;;4865243;29;20437;-81
2021/07/14 00:44:03;;;;;;;2.47;2.37;;;21.50;44.10;;;;;;2426412;29;69044865;-80
2021/07/14 00:46:48;;;;;;;2.60;2.40;;;21.50;44.10;;;;;;4813059;29;61245;-81
2021/07/14 00:49:58;;;;;;;;;;;;;;;;;;;;;
2021/07/14 00:53:22;;;;;;;2.93;2.77;;;21.50;44.10;;;;;;4755782;29;81253;-80
2021/07/14 00:59:53;;;;;;;3.00;2.80;;;21.50;44.10;;;;;;4758830;30;20439;-80
2021/07/14 01:03:49;;;;;;;2.30;2.20;;;21.50;44.00;;;;;;4724605;30;20963;-80
2021/07/14 01:07:14;;;;;;;2.57;2.47;;;21.50;44.10;;;;;;4643110;30;2346980;-81
2021/07/14 01:14:27;;;;;;;2.77;2.60;;;21.50;44.10;;;;;;4665961;30;20504;-80
2021/07/14 01:17:48;;;;;;;2.20;2.10;;;21.50;44.10;;;;;;4668728;30;20480;-80
2021/07/14 01:24:57;;;;;;;2.50;2.40;;;21.50;44.10;;;;;;4788769;29;20534;-80
2021/07/14 01:31:41;;;;;;;2.20;2.10;;;21.50;44.00;;;;;;4710802;30;20906;-81
2021/07/14 01:34:55;;;;;;;2.10;2.00;;;21.50;44.00;;;;;;4822273;29;20454;-80
2021/07/14 01:37:51;;;;;;;2.60;2.50;;;21.50;44.00;;;;;;4822391;29;20466;-80
2021/07/14 01:40:31;;;;;;;2.73;2.63;;;21.50;44.10;;;;;;4877763;29;20478;-80
2021/07/14 01:46:58;;;;;;;2.40;2.30;;;21.50;44.10;;;;;;4794678;29;21152;-81
2021/07/14 01:49:45;;;;;;;2.37;2.27;;;21.50;44.00;;;;;;4737046;29;20464;-80
2021/07/14 01:52:42;;;;;;;2.10;2.00;;;21.50;44.10;;;;;;4752293;29;20452;-81
2021/07/14 02:06:48;;;;;;;2.50;2.40;;;21.50;44.00;;;;;;4819004;29;21156;-81
2021/07/14 02:09:24;;;;;;;2.57;2.47;;;21.50;44.00;;;;;;4812997;29;20444;-81
2021/07/14 02:12:23;;;;;;;2.50;2.40;;;21.50;44.10;;;;;;4812288;29;20460;-81
2021/07/14 02:15:11;;;;;;;2.60;2.50;;;21.50;44.00;;;;;;4829389;29;20483;-80
2021/07/14 02:18:37;;;;;;;2.30;2.20;;;21.50;44.00;;;;;;4853572;29;20515;-80
2021/07/14 02:21:53;;;;;;;2.60;2.50;;;21.40;44.00;;;;;;4865535;29;20511;-81
2021/07/14 02:25:55;;;;;;;2.40;2.30;;;21.50;44.00;;;;;;4850609;29;20478;-81
2021/07/14 02:29:03;;;;;;;2.37;2.27;;;21.50;44.00;;;;;;4765828;29;20460;-80
2021/07/14 02:31:49;;;;;;;2.30;2.20;;;21.40;44.00;;;;;;4796838;29;20474;-81
2021/07/14 02:35:14;;;;;;;2.47;2.37;;;21.40;44.00;;;;;;4806985;29;20490;-81
2021/07/14 02:41:48;;;;;;;2.50;2.40;;;21.50;44.10;;;;;;4830436;29;20942;-81
2021/07/14 02:44:42;;;;;;;2.40;2.30;;;21.50;44.00;;;;;;4713188;29;20516;-81
2021/07/14 02:47:15;;;;;;;2.40;2.30;;;21.50;44.00;;;;;;4782385;29;20605;-81
2021/07/14 02:50:09;;;;;;;2.30;2.20;;;21.40;44.00;;;;;;4758414;29;21222;-81
2021/07/14 02:53:27;;;;;;;2.43;2.33;;;21.40;44.00;;;;;;4763657;29;20526;-81
2021/07/14 03:04:40;;;;;;;2.40;2.30;;;21.50;44.00;;;;;;4815311;29;20477;-82
2021/07/14 03:08:14;;;;;;;2.17;2.10;;;21.40;44.00;;;;;;4779293;30;20446;-81
2021/07/14 03:14:59;;;;;;;2.43;2.33;;;21.40;44.00;;;;;;4819534;29;20532;-81
2021/07/14 03:18:46;;;;;;;2.53;2.43;;;21.40;43.90;;;;;;4755309;29;20486;-80
2021/07/14 03:21:55;;;;;;;2.47;2.37;;;21.50;44.00;;;;;;4814527;29;20485;-81
2021/07/14 03:32:32;;;;;;;2.60;2.50;;;21.40;44.00;;;;;;4784595;29;21236;-80
2021/07/14 03:35:49;;;;;;;2.57;2.47;;;21.40;43.90;;;;;;4784635;29;20619;-81
2021/07/14 03:50:38;;;;;;;2.40;2.30;;;21.40;44.00;;;;;;4778817;29;20902;-81
2021/07/14 04:01:26;;;;;;;2.40;2.30;;;21.40;44.00;;;;;;4715277;30;20490;-81
2021/07/14 04:05:10;;;;;;;2.10;2.00;;;21.40;44.00;;;;;;2330869;30;72641242;-80
2021/07/14 04:08:21;;;;;;;2.30;2.20;;;21.40;44.00;;;;;;4706700;30;20604;-81
2021/07/14 04:11:30;;;;;;;2.50;2.40;;;21.40;43.90;;;;;;4707019;30;20446;-84
2021/07/14 04:14:25;;;;;;;2.40;2.35;;;21.40;44.00;;;;;;2002012;30;62778339;-80
2021/07/14 04:16:59;;;;;;;2.60;2.40;;;21.40;43.90;;;;;;4687519;30;20233;-83
2021/07/14 04:24:08;;;;;;;2.63;2.53;;;21.40;43.90;;;;;;4713027;30;20529;-83
2021/07/14 04:27:31;;;;;;;2.50;2.40;;;21.40;44.00;;;;;;4695356;30;21021;-81
2021/07/14 04:31:01;;;;;;;2.40;2.30;;;21.40;44.00;;;;;;4717838;30;21006;-81
2021/07/14 04:37:37;;;;;;;2.77;2.57;;;21.40;44.00;;;;;;4716203;30;20903;-81
2021/07/14 04:40:13;;;;;;;2.70;2.60;;;21.40;44.00;;;;;;4759529;29;20477;-79
2021/07/14 04:43:13;;;;;;;2.83;2.73;;;21.40;44.10;;;;;;4792912;29;21299;-79
2021/07/14 04:46:51;;;;;;;2.80;2.70;;;21.50;44.90;;;;;;4813058;29;20429;-79
2021/07/14 04:49:37;;;;;;;4.20;2.73;;;21.50;44.30;;;;;;4789727;29;20821;-79
2021/07/14 04:55:58;;;;;;;3.10;2.90;;;21.50;44.40;;;;;;4735246;29;20513;-79
2021/07/14 05:01:57;;;;;;;2.70;2.60;;;21.50;44.40;;;;;;4781236;29;20536;-79
2021/07/14 05:04:43;;;;;;;3.20;3.00;;;21.50;44.40;;;;;;4774700;29;20532;-79
2021/07/14 05:07:56;;;;;;;7.40;3.80;;;21.50;44.40;;;;;;4753864;29;20477;-79
2021/07/14 05:10:31;;;;;;;3.43;3.23;;;21.60;44.60;;;;;;4702719;29;20479;-79
2021/07/14 05:12:57;;;;;;;3.97;3.67;;;21.60;44.90;;;;;;4750278;29;20757;-81
2021/07/14 05:15:24;;;;;;;4.50;4.10;;;21.60;44.80;;;;;;4749830;29;20465;-80
2021/07/14 05:17:49;;;;;;;4.30;4.00;;;21.60;45.00;;;;;;4736053;29;20465;-80
2021/07/14 05:20:21;;;;;;;3.40;3.00;;;21.60;45.30;;;;;;4736151;29;20465;-79
2021/07/14 05:22:47;;;;;;;6.33;3.23;;;21.60;45.10;;;;;;4718617;30;20659;-80
2021/07/14 05:25:24;;;;;;;4.33;3.47;;;21.60;45.10;;;;;;4718074;30;20577;-80
2021/07/14 05:27:50;;;;;;;6.50;3.40;;;21.60;45.20;;;;;;4724078;29;20237;-80
2021/07/14 05:30:17;;;;;;;3.50;3.20;;;21.60;45.30;;;;;;4753776;29;20468;-80
2021/07/14 05:32:43;;;;;;;3.60;3.07;;;21.60;45.20;;;;;;4733101;29;20226;-81
2021/07/14 05:35:09;;;;;;;4.03;3.70;;;21.60;45.00;;;;;;4736682;29;20598;-80
2021/07/14 05:37:34;;;;;;;3.90;3.60;;;21.60;45.20;;;;;;4737049;29;20242;-80
2021/07/14 05:40:00;;;;;;;7.57;4.43;;;21.60;45.00;;;;;;4738275;29;20234;-80
2021/07/14 05:42:25;;;;;;;8.93;4.30;;;21.60;45.10;;;;;;4798961;29;20232;-79
2021/07/14 05:44:51;;;;;;;7.73;5.90;;;21.60;45.10;;;;;;4809785;29;20334;-81
2021/07/14 05:47:17;;;;;;;17.50;6.10;;;21.60;45.10;;;;;;4809377;29;20833;-81
2021/07/14 05:49:43;;;;;;;9.50;5.90;;;21.60;45.10;;;;;;4810282;29;20243;-81
2021/07/14 05:52:09;;;;;;;11.23;6.10;;;21.60;45.10;;;;;;4812193;29;20465;-81
2021/07/14 05:54:35;;;;;;;8.83;5.33;;;21.60;45.00;;;;;;4810907;29;20461;-81
2021/07/14 05:57:01;;;;;;;4.83;4.30;;;21.60;45.00;;;;;;4829863;29;20457;-81
2021/07/14 05:59:29;;;;;;;7.33;4.20;;;21.70;45.10;;;;;;4878204;29;20700;-81
2021/07/14 06:01:55;;;;;;;6.60;3.90;;;21.60;45.00;;;;;;4924550;29;20350;-80
2021/07/14 06:04:20;;;;;;;5.40;4.30;;;21.60;44.10;;;;;;4922708;29;20576;-80
2021/07/14 06:06:46;;;;;;;4.40;4.10;;;21.50;43.10;;;;;;4923342;29;20235;-80
2021/07/14 06:09:12;;;;;;;4.33;3.93;;;21.50;42.60;;;;;;4967201;28;20286;-80
2021/07/14 06:11:37;;;;;;;4.57;4.17;;;21.40;42.00;;;;;;4978643;28;20699;-80
2021/07/14 06:14:03;;;;;;;4.90;4.60;;;21.40;41.60;;;;;;4976610;28;20218;-79
2021/07/14 06:16:29;;;;;;;4.00;3.70;;;21.40;41.60;;;;;;4978204;28;20225;-79
2021/07/14 06:18:54;;;;;;;4.77;4.37;;;21.30;41.50;;;;;;4976478;28;20235;-79
2021/07/14 06:21:21;;;;;;;4.43;4.20;;;21.30;41.50;;;;;;4978271;28;20249;-79
2021/07/14 06:23:47;;;;;;;5.97;3.60;;;21.30;41.50;;;;;;4976613;28;20291;-79
2021/07/14 06:26:15;;;;;;;4.40;3.70;;;21.30;40.90;;;;;;4957760;28;20481;-79
2021/07/14 06:28:41;;;;;;;6.60;4.60;;;21.30;40.60;;;;;;4959206;28;20462;-79
2021/07/14 06:31:06;;;;;;;4.30;3.90;;;21.20;40.50;;;;;;4957872;28;20273;-79
2021/07/14 06:33:35;;;;;;;4.37;4.07;;;21.20;40.20;;;;;;4959092;28;20222;-79
2021/07/14 06:36:02;;;;;;;3.90;3.60;;;21.20;40.00;;;;;;4942021;28;20228;-79
2021/07/14 06:38:28;;;;;;;3.80;3.60;;;21.20;40.50;;;;;;4960350;28;20462;-79
2021/07/14 06:40:53;;;;;;;4.40;4.10;;;21.10;40.40;;;;;;4958003;28;20513;-79
2021/07/14 06:43:19;;;;;;;5.07;4.10;;;21.10;40.50;;;;;;4959959;28;20258;-79
2021/07/14 06:45:47;;;;;;;4.10;3.80;;;21.10;40.80;;;;;;4957509;28;20257;-79
2021/07/14 06:48:13;;;;;;;4.10;3.90;;;21.10;40.50;;;;;;4958998;28;20232;-79
2021/07/14 06:50:42;;;;;;;4.43;4.13;;;21.10;40.50;;;;;;4973147;28;20456;-81
2021/07/14 06:53:08;;;;;;;4.00;3.70;;;21.10;40.60;;;;;;4976078;28;20433;-80
2021/07/14 06:55:33;;;;;;;5.00;4.37;;;21.10;40.80;;;;;;4977644;28;20445;-80
2021/07/14 06:57:59;;;;;;;4.43;4.03;;;21.10;40.70;;;;;;4980045;28;20222;-81
2021/07/14 07:00:26;;;;;;;4.20;3.90;;;21.10;40.50;;;;;;4980691;28;20233;-80
2021/07/14 07:02:51;;;;;;;6.37;4.00;;;21.10;40.50;;;;;;4956992;28;20434;-79
2021/07/14 07:05:17;;;;;;;5.37;3.97;;;21.10;40.30;;;;;;4943184;28;20473;-80
2021/07/14 07:07:42;;;;;;;6.00;4.17;;;21.10;40.50;;;;;;4958339;28;20245;-80
2021/07/14 07:10:34;;;;;;;3.97;3.60;;;21.10;40.20;;;;;;4946439;28;20382;-81
2021/07/14 07:12:59;;;;;;;4.27;3.90;;;21.10;39.90;;;;;;4992889;28;21017;-81
2021/07/14 07:15:25;;;;;;;4.53;4.17;;;21.00;39.20;;;;;;5001125;28;20460;-81
2021/07/14 07:17:51;;;;;;;3.90;3.70;;;21.00;39.50;;;;;;5000690;28;20692;-81
2021/07/14 07:20:17;;;;;;;4.20;3.80;;;21.00;39.80;;;;;;4999242;28;20229;-81
2021/07/14 07:22:44;;;;;;;4.07;3.87;;;21.00;39.80;;;;;;4998049;28;20252;-82
2021/07/14 07:25:11;;;;;;;4.20;3.70;;;21.00;39.60;;;;;;4999807;28;20457;-80
2021/07/14 07:27:38;;;;;;;3.90;3.70;;;21.00;39.30;;;;;;5003401;28;20524;-81
2021/07/14 07:30:06;;;;;;;4.20;4.00;;;21.00;39.30;;;;;;5020126;28;20528;-81
2021/07/14 07:32:31;;;;;;;4.00;3.60;;;21.00;39.50;;;;;;5030448;28;20916;-82
2021/07/14 07:34:57;;;;;;;3.80;3.60;;;21.00;39.40;;;;;;5004677;28;20451;-81
2021/07/14 07:37:22;;;;;;;3.80;3.60;;;21.00;39.30;;;;;;5022276;28;20235;-81
2021/07/14 07:39:49;;;;;;;4.37;4.03;;;21.00;39.60;;;;;;5023112;28;20239;-81
2021/07/14 07:42:15;;;;;;;4.80;3.90;;;21.00;39.40;;;;;;5022052;28;20228;-81
2021/07/14 07:44:41;;;;;;;4.97;4.33;;;21.00;39.50;;;;;;5022163;28;20524;-81
2021/07/14 07:47:07;;;;;;;4.20;3.83;;;21.00;39.70;;;;;;5005687;28;20565;-81
2021/07/14 07:49:32;;;;;;;4.30;4.00;;;21.00;39.60;;;;;;5023607;28;20459;-81
2021/07/14 07:51:58;;;;;;;3.90;3.60;;;21.00;39.80;;;;;;5023127;28;20462;-81
2021/07/14 07:54:26;;;;;;;3.90;3.60;;;21.00;39.80;;;;;;5005086;28;20247;-81
2021/07/14 07:56:58;;;;;;;4.43;4.13;;;21.00;40.00;;;;;;4993147;28;20243;-82
2021/07/14 07:59:23;;;;;;;4.40;4.17;;;21.10;40.20;;;;;;5005936;28;20467;-80
2021/07/14 08:01:49;;;;;;;3.90;3.60;;;21.00;40.10;;;;;;5000949;28;20459;-81
2021/07/14 08:08:01;;;;;;;;;;;;;;;;;;;;;
2021/07/14 08:14:14;;;;;;;4.67;4.10;;;21.00;40.70;;;;;;4846748;29;20466;-81
2021/07/14 08:20:46;;;;;;;;;;;;;;;;;;;;;
2021/07/14 08:27:14;;;;;;;3.57;3.37;;;21.10;41.10;;;;;;4765934;29;21059;-81
2021/07/14 08:30:21;;;;;;;4.77;4.47;;;21.00;40.90;;;;;;4756870;30;20459;-81
2021/07/14 08:33:13;;;;;;;4.20;3.90;;;21.00;40.90;;;;;;4815761;29;20529;-81
2021/07/14 08:40:18;;;;;;;3.70;3.50;;;21.00;41.20;;;;;;4801197;29;20982;-81
2021/07/14 08:43:08;;;;;;;3.63;3.43;;;21.10;41.30;;;;;;4798485;29;20456;-81
2021/07/14 08:46:01;;;;;;;4.03;3.83;;;21.10;41.30;;;;;;4806455;29;20623;-81
2021/07/14 08:48:44;;;;;;;4.47;4.17;;;21.10;41.30;;;;;;4842193;29;20803;-80
2021/07/14 08:51:51;;;;;;;4.07;3.87;;;21.10;41.30;;;;;;4829865;29;20608;-81
2021/07/14 08:54:17;;;;;;;5.17;3.63;;;21.10;41.30;;;;;;4903483;28;20443;-80
2021/07/14 08:56:45;;;;;;;3.50;3.30;;;21.20;41.40;;;;;;4944067;28;20474;-80
2021/07/14 08:59:10;;;;;;;4.10;3.63;;;21.10;41.30;;;;;;4956079;28;21090;-80
2021/07/14 09:01:36;;;;;;;3.60;3.40;;;21.10;41.30;;;;;;4939957;28;20455;-80
2021/07/14 09:04:27;;;;;;;3.70;3.50;;;21.10;41.30;;;;;;4935212;28;20238;-81
2021/07/14 09:06:53;;;;;;;4.00;3.80;;;21.20;41.50;;;;;;4936709;29;20218;-81
2021/07/14 09:09:37;;;;;;;3.70;3.50;;;21.20;41.40;;;;;;4970316;28;20461;-81
2021/07/14 09:12:07;;;;;;;4.20;3.90;;;21.20;41.40;;;;;;4983459;28;20464;-80
2021/07/14 09:14:55;;;;;;;4.20;4.00;;;21.20;41.40;;;;;;4962348;28;20452;-81
2021/07/14 09:17:24;;;;;;;3.63;3.43;;;21.10;41.30;;;;;;4972910;28;20460;-80
2021/07/14 09:20:22;;;;;;;3.70;3.50;;;21.20;41.40;;;;;;5002856;28;20456;-80
2021/07/14 09:23:00;;;;;;;4.00;3.80;;;21.20;41.40;;;;;;4983577;28;20483;-81
2021/07/14 09:25:28;;;;;;;3.60;3.43;;;21.20;41.40;;;;;;4970808;28;20842;-81
2021/07/14 09:31:28;;;;;;;3.70;3.50;;;21.20;41.40;;;;;;4993468;28;20556;-78
2021/07/14 09:34:04;;;;;;;3.90;3.60;;;21.20;41.40;;;;;;4990495;28;20451;-80
2021/07/14 09:36:46;;;;;;;3.40;3.20;;;21.10;41.30;;;;;;4986951;28;20455;-80
2021/07/14 09:39:53;;;;;;;4.23;3.93;;;21.10;41.30;;;;;;4979834;28;20469;-80
2021/07/14 09:43:11;;;;;;;3.43;3.23;;;21.10;41.30;;;;;;4989863;28;20462;-80
2021/07/14 09:46:05;;;;;;;3.37;3.20;;;21.10;41.30;;;;;;4961653;28;20862;-79
2021/07/14 09:59:28;;;;;;;4.07;3.87;;;21.10;41.30;;;;;;5075756;23;20903;-80
2021/07/14 10:02:17;;;;;;;4.03;3.83;;;21.10;41.30;;;;;;4962085;28;20548;-79
2021/07/14 10:04:51;;;;;;;3.70;3.50;;;21.10;41.30;;;;;;4911854;28;21375;-79
2021/07/14 10:08:22;;;;;;;4.60;4.30;;;21.10;41.30;;;;;;4937688;28;20476;-80
2021/07/14 10:14:47;;;;;;;4.20;4.00;;;21.10;41.30;;;;;;4887278;29;20408;-80
2021/07/14 10:21:15;;;;;;;4.53;4.30;;;21.10;41.30;;;;;;4702333;29;20583;-80
2021/07/14 10:24:14;;;;;;;4.57;4.27;;;21.10;41.30;;;;;;4738338;29;20494;-79
2021/07/14 10:27:41;;;;;;;4.30;4.10;;;21.10;41.30;;;;;;4743911;29;20564;-79
2021/07/14 10:30:31;;;;;;;4.23;3.97;;;21.10;41.30;;;;;;4744382;29;20462;-79
2021/07/14 10:33:46;;;;;;;4.23;4.03;;;21.10;41.10;;;;;;4736059;30;20493;-82
2021/07/14 10:40:59;;;;;;;4.07;3.77;;;21.10;40.40;;;;;;4703507;30;21124;-83
2021/07/14 10:43:31;;;;;;;4.07;3.77;;;21.10;41.00;;;;;;4715060;30;20476;-83
2021/07/14 10:46:34;;;;;;;3.80;3.60;;;21.10;40.50;;;;;;4741902;30;20452;-82
2021/07/14 10:49:36;;;;;;;4.40;4.20;;;21.20;40.20;;;;;;4730788;30;20507;-81
2021/07/14 10:52:45;;;;;;;3.87;3.67;;;21.10;40.50;;;;;;4748376;30;20994;-80
2021/07/14 10:55:49;;;;;;;5.10;3.40;;;21.10;40.30;;;;;;4803647;29;21233;-83
2021/07/14 10:59:03;;;;;;;4.47;4.20;;;21.20;40.50;;;;;;4792383;29;20535;-81
2021/07/14 11:01:52;;;;;;;4.30;4.10;;;21.20;40.40;;;;;;4753845;29;20469;-81
2021/07/14 11:04:48;;;;;;;3.73;3.50;;;21.20;40.20;;;;;;4802895;29;20492;-83
2021/07/14 11:14:37;;;;;;;4.13;3.93;;;21.30;39.70;;;;;;4790490;29;20480;-79
2021/07/14 11:17:57;;;;;;;4.47;4.27;;;21.20;39.40;;;;;;4810868;29;20530;-81
2021/07/14 11:21:04;;;;;;;4.03;3.90;;;21.30;39.60;;;;;;4799165;29;20499;-84
2021/07/14 11:31:35;;;;;;;3.97;3.77;;;21.30;37.80;;;;;;4870962;29;20409;-82
2021/07/14 11:35:08;;;;;;;3.53;3.43;;;21.20;38.10;;;;;;4906261;29;20475;-82
2021/07/14 11:45:04;;;;;;;3.50;3.30;;;21.40;38.50;;;;;;4920959;29;20565;-82
2021/07/14 11:47:44;;;;;;;3.33;3.23;;;21.40;37.60;;;;;;4950920;28;20445;-80
2021/07/14 11:50:34;;;;;;;4.10;3.60;;;21.40;38.20;;;;;;4948985;28;20449;-79
2021/07/14 11:53:03;;;;;;;3.70;3.40;;;21.40;37.70;;;;;;4907269;28;20449;-80
2021/07/14 11:55:37;;;;;;;3.80;3.50;;;21.40;38.10;;;;;;4947836;28;20944;-79
2021/07/14 11:58:04;;;;;;;3.53;3.33;;;21.40;38.20;;;;;;4947348;28;20467;-79
2021/07/14 12:00:58;;;;;;;3.17;3.07;;;21.40;37.70;;;;;;4978412;28;20453;-79
2021/07/14 12:03:30;;;;;;;3.40;3.30;;;21.50;36.70;;;;;;4922570;28;20490;-80
2021/07/14 12:05:57;;;;;;;3.10;2.90;;;21.40;36.40;;;;;;4902810;29;20456;-79
2021/07/14 12:08:37;;;;;;;3.53;3.30;;;21.40;36.80;;;;;;4925321;28;20523;-78
2021/07/14 12:11:03;;;;;;;3.70;3.40;;;21.40;36.70;;;;;;4908580;28;20973;-79
2021/07/14 12:13:31;;;;;;;4.03;3.67;;;21.50;36.70;;;;;;4920074;28;20459;-79
2021/07/14 12:19:05;;;;;;;3.77;3.57;;;21.50;37.40;;;;;;4885365;29;20576;-79
2021/07/14 12:22:12;;;;;;;3.83;3.53;;;21.50;37.70;;;;;;4872651;29;21010;-80
2021/07/14 12:24:42;;;;;;;4.40;4.00;;;21.50;37.90;;;;;;4844290;29;20552;-78
2021/07/14 12:27:22;;;;;;;3.77;3.57;;;21.50;37.80;;;;;;4871752;29;21300;-79
2021/07/14 12:30:00;;;;;;;3.30;3.10;;;21.50;37.50;;;;;;4892698;29;20459;-79
2021/07/14 12:32:37;;;;;;;3.40;3.30;;;21.50;38.00;;;;;;4898979;29;20463;-79
2021/07/14 12:35:07;;;;;;;4.10;3.67;;;21.50;38.60;;;;;;4916785;29;20464;-79
2021/07/14 12:38:03;;;;;;;4.00;3.80;;;21.50;38.00;;;;;;4918371;29;20475;-79
2021/07/14 12:40:36;;;;;;;3.40;3.20;;;21.50;37.70;;;;;;4852771;29;20497;-79
2021/07/14 12:43:14;;;;;;;3.23;3.10;;;21.50;37.30;;;;;;4887421;29;20501;-80
2021/07/14 12:45:42;;;;;;;3.50;3.30;;;21.50;36.50;;;;;;4866879;29;20556;-79
2021/07/14 12:48:28;;;;;;;3.20;3.10;;;21.50;37.20;;;;;;4880877;29;20459;-79
2021/07/14 12:50:55;;;;;;;4.10;3.70;;;21.50;37.60;;;;;;4828062;29;20460;-80
2021/07/14 12:53:21;;;;;;;3.33;3.13;;;21.60;38.00;;;;;;4855165;29;20445;-79
2021/07/14 12:55:48;;;;;;;3.30;3.10;;;21.50;38.00;;;;;;4884927;29;20458;-79
2021/07/14 12:58:23;;;;;;;3.97;3.67;;;21.50;36.90;;;;;;4875494;29;21073;-79
2021/07/14 13:00:54;;;;;;;3.23;3.13;;;21.50;36.50;;;;;;4845400;29;21298;-80
2021/07/14 13:03:31;;;;;;;3.83;3.53;;;21.50;36.90;;;;;;4819532;28;20458;-79
2021/07/14 13:05:58;;;;;;;3.27;3.07;;;21.50;37.70;;;;;;4921305;28;20585;-79
2021/07/14 13:08:29;;;;;;;4.27;3.40;;;21.50;37.10;;;;;;4940816;28;20471;-80
2021/07/14 13:11:05;;;;;;;3.43;3.23;;;21.50;37.70;;;;;;4940795;28;20957;-80
2021/07/14 13:13:33;;;;;;;3.37;3.27;;;21.50;37.30;;;;;;4940669;28;20458;-80
2021/07/14 13:16:03;;;;;;;3.60;3.30;;;21.50;38.10;;;;;;4941513;28;20454;-80
2021/07/14 13:18:44;;;;;;;3.73;3.43;;;21.50;37.30;;;;;;4941443;28;20458;-79
2021/07/14 13:21:20;;;;;;;2.83;2.73;;;21.50;37.30;;;;;;4940857;28;20977;-79
2021/07/14 13:23:46;;;;;;;3.83;3.37;;;21.50;37.40;;;;;;4940705;28;20490;-79
2021/07/14 13:26:20;;;;;;;3.03;2.93;;;21.50;37.20;;;;;;4941566;28;20999;-79
2021/07/14 13:28:47;;;;;;;3.17;3.03;;;21.50;36.80;;;;;;4940588;28;20238;-79
2021/07/14 13:31:24;;;;;;;3.67;3.40;;;21.60;37.10;;;;;;4940829;28;20467;-79
2021/07/14 13:34:01;;;;;;;3.73;3.47;;;21.60;37.40;;;;;;4941163;28;20562;-79
2021/07/14 13:36:43;;;;;;;3.60;3.40;;;21.50;37.40;;;;;;4943042;28;20481;-80
2021/07/14 13:39:19;;;;;;;3.37;3.17;;;21.50;36.80;;;;;;4957118;28;20485;-80
2021/07/14 13:41:57;;;;;;;3.73;3.53;;;21.50;37.10;;;;;;4918768;28;21545;-80
2021/07/14 13:44:28;;;;;;;3.00;2.90;;;21.50;37.60;;;;;;4949941;28;20465;-78
2021/07/14 13:46:55;;;;;;;3.47;3.23;;;21.50;36.00;;;;;;4941523;28;20501;-79
2021/07/14 13:49:22;;;;;;;3.60;3.40;;;21.50;36.30;;;;;;4975415;28;20448;-79
2021/07/14 13:51:47;;;;;;;3.33;3.20;;;21.50;37.10;;;;;;4981857;28;20440;-78
2021/07/14 13:54:34;;;;;;;3.30;3.20;;;21.50;37.00;;;;;;4974981;28;20453;-78
2021/07/14 13:57:03;;;;;;;3.77;3.43;;;21.60;37.30;;;;;;4981593;28;20363;-77
2021/07/14 13:59:36;;;;;;;3.20;3.10;;;21.60;37.20;;;;;;4977348;28;20477;-78
2021/07/14 14:02:03;;;;;;;3.40;3.20;;;21.60;37.40;;;;;;4978193;28;20611;-78
2021/07/14 14:04:44;;;;;;;3.10;3.00;;;21.60;36.30;;;;;;4962094;28;20571;-78
2021/07/14 14:07:27;;;;;;;2.80;2.70;;;21.60;36.40;;;;;;4999800;28;20459;-80
2021/07/14 14:10:00;;;;;;;6.40;3.43;;;21.50;35.50;;;;;;5000269;28;20456;-79
2021/07/14 14:12:33;;;;;;;4.17;3.87;;;21.50;35.80;;;;;;5001250;28;20468;-78
2021/07/14 14:15:01;;;;;;;3.20;3.00;;;21.60;37.00;;;;;;4999486;28;20962;-78
2021/07/14 14:17:27;;;;;;;2.97;2.77;;;21.60;37.10;;;;;;4998216;28;20455;-77
2021/07/14 14:19:54;;;;;;;3.30;3.20;;;21.60;36.90;;;;;;4999184;28;20463;-79
2021/07/14 14:22:25;;;;;;;3.30;3.20;;;21.60;36.90;;;;;;4999282;28;20224;-79
2021/07/14 14:24:51;;;;;;;3.40;3.20;;;21.60;37.40;;;;;;4998871;28;20459;-79
2021/07/14 14:27:18;;;;;;;3.40;3.20;;;21.60;37.40;;;;;;4998008;28;20467;-80
2021/07/14 14:29:43;;;;;;;3.10;2.90;;;21.60;37.40;;;;;;4998042;28;20452;-79
2021/07/14 14:32:11;;;;;;;3.10;3.00;;;21.60;37.00;;;;;;4998909;28;20463;-80
2021/07/14 14:34:36;;;;;;;3.10;3.00;;;21.60;36.20;;;;;;4999477;28;20225;-79
2021/07/14 14:37:02;;;;;;;3.70;3.40;;;21.60;37.00;;;;;;5007322;28;20462;-79
2021/07/14 14:39:28;;;;;;;3.00;2.87;;;21.70;37.40;;;;;;5020605;28;20456;-78
2021/07/14 14:41:56;;;;;;;2.70;2.60;;;21.60;37.00;;;;;;5019330;28;20255;-79
2021/07/14 14:44:22;;;;;;;2.77;2.67;;;21.70;36.70;;;;;;5002016;28;20233;-79
2021/07/14 14:46:48;;;;;;;3.07;2.87;;;21.60;35.80;;;;;;5001234;28;20455;-78
2021/07/14 14:49:13;;;;;;;3.20;3.00;;;21.60;35.40;;;;;;5000225;28;20440;-79
2021/07/14 14:51:39;;;;;;;3.20;2.80;;;21.60;36.20;;;;;;5000862;28;20239;-78
2021/07/14 14:54:05;;;;;;;3.37;3.17;;;21.70;37.10;;;;;;5001026;28;20236;-78
2021/07/14 14:56:30;;;;;;;3.03;2.83;;;21.70;36.80;;;;;;5000341;28;20255;-78
2021/07/14 14:58:56;;;;;;;3.17;2.97;;;21.70;37.20;;;;;;5000890;28;20229;-79
2021/07/14 15:01:21;;;;;;;3.10;3.00;;;21.70;37.30;;;;;;4998953;28;20224;-79
2021/07/14 15:03:47;;;;;;;3.23;3.03;;;21.70;37.30;;;;;;4999337;28;20280;-78
2021/07/14 15:06:14;;;;;;;3.77;3.47;;;21.70;37.40;;;;;;5000612;28;20233;-78
2021/07/14 15:08:39;;;;;;;5.00;3.83;;;21.70;37.50;;;;;;5000089;28;20246;-79
2021/07/14 15:11:05;;;;;;;3.50;3.30;;;21.70;37.70;;;;;;5016417;28;20451;-78
2021/07/14 15:13:31;;;;;;;2.87;2.77;;;21.70;37.10;;;;;;5020742;28;20278;-78
2021/07/14 15:15:56;;;;;;;3.23;3.13;;;21.70;37.00;;;;;;5020263;28;20426;-78
2021/07/14 15:18:41;;;;;;;3.80;3.53;;;21.70;37.50;;;;;;5018481;28;20243;-78
2021/07/14 15:21:11;;;;;;;3.10;2.90;;;21.70;37.60;;;;;;5018030;28;20232;-78
2021/07/14 15:23:38;;;;;;;3.10;2.90;;;21.70;37.70;;;;;;5019164;28;20479;-79
2021/07/14 15:28:40;;;;;;;3.00;2.77;;;21.70;37.90;;;;;;5018561;28;20498;-79
2021/07/14 15:31:14;;;;;;;4.03;2.80;;;21.70;38.00;;;;;;5016953;28;20876;-78
2021/07/14 15:33:40;;;;;;;3.80;2.70;;;21.70;37.40;;;;;;5018380;28;20450;-78
2021/07/14 15:36:06;;;;;;;3.53;3.37;;;21.70;37.70;;;;;;5000159;28;20478;-78
2021/07/14 15:38:32;;;;;;;3.43;3.23;;;21.70;38.00;;;;;;5021699;28;20546;-80
2021/07/14 15:40:57;;;;;;;3.37;3.17;;;21.70;38.10;;;;;;5017082;28;20891;-78
2021/07/14 15:43:25;;;;;;;3.90;3.47;;;21.70;38.40;;;;;;5018296;28;20439;-78
2021/07/14 15:45:50;;;;;;;3.00;2.90;;;21.70;38.70;;;;;;5017577;28;20315;-77
2021/07/14 15:48:16;;;;;;;3.30;3.10;;;21.70;38.90;;;;;;5023451;28;21185;-77
2021/07/14 15:50:41;;;;;;;3.20;3.00;;;21.60;38.90;;;;;;5021148;28;20227;-78
2021/07/14 15:53:10;;;;;;;3.30;3.10;;;21.70;38.90;;;;;;5018603;28;20708;-78
2021/07/14 15:55:36;;;;;;;3.50;3.30;;;21.70;39.50;;;;;;5001143;28;20236;-78
2021/07/14 15:58:02;;;;;;;3.63;3.33;;;21.60;39.10;;;;;;4986046;28;20452;-79
2021/07/14 16:00:29;;;;;;;3.17;3.07;;;21.60;39.70;;;;;;5005752;28;20443;-79
2021/07/14 16:02:55;;;;;;;3.30;3.20;;;21.60;39.70;;;;;;5005600;28;20471;-78
2021/07/14 16:05:20;;;;;;;3.20;3.10;;;21.70;39.60;;;;;;5002065;28;20496;-78
2021/07/14 16:07:46;;;;;;;3.07;2.97;;;21.70;40.10;;;;;;5001759;28;20323;-79
2021/07/14 16:10:13;;;;;;;3.57;3.40;;;21.60;39.70;;;;;;4984201;28;20233;-78
2021/07/14 16:12:40;;;;;;;3.60;3.30;;;21.60;40.00;;;;;;5002380;28;20440;-78
2021/07/14 16:15:07;;;;;;;3.50;3.40;;;21.70;40.10;;;;;;5003449;28;20460;-78
2021/07/14 16:17:32;;;;;;;3.17;2.97;;;21.70;40.90;;;;;;5001677;28;20495;-78
2021/07/14 16:19:58;;;;;;;4.37;3.47;;;21.60;40.40;;;;;;5001687;28;20484;-79
2021/07/14 16:22:24;;;;;;;3.30;3.00;;;21.60;40.50;;;;;;5003255;28;20252;-78
2021/07/14 16:24:49;;;;;;;3.00;2.90;;;21.60;40.50;;;;;;5003777;28;20233;-78
2021/07/14 16:27:15;;;;;;;3.60;3.33;;;21.60;40.70;;;;;;5004212;28;20401;-79
2021/07/14 16:29:40;;;;;;;3.70;2.77;;;21.60;40.60;;;;;;5002327;28;20406;-77
2021/07/14 16:32:07;;;;;;;3.53;3.20;;;21.60;40.50;;;;;;5001040;28;20662;-77
2021/07/14 16:34:32;;;;;;;2.80;2.70;;;21.60;40.70;;;;;;5000469;28;21422;-78
2021/07/14 16:36:59;;;;;;;3.47;2.80;;;21.60;40.60;;;;;;5001818;28;20452;-77
2021/07/14 16:39:24;;;;;;;3.70;3.50;;;21.70;40.90;;;;;;5000975;28;20245;-77
2021/07/14 16:41:50;;;;;;;3.10;3.00;;;21.70;40.80;;;;;;5001595;28;20535;-78
2021/07/14 16:44:15;;;;;;;2.87;2.77;;;21.70;40.90;;;;;;5002150;28;20240;-78
2021/07/14 16:46:41;;;;;;;4.30;3.40;;;21.70;41.20;;;;;;4984060;28;20252;-78
2021/07/14 16:49:07;;;;;;;3.57;3.33;;;21.70;41.10;;;;;;4986126;28;20667;-78
2021/07/14 16:51:32;;;;;;;3.60;3.30;;;21.70;41.40;;;;;;5006982;28;20221;-77
2021/07/14 16:53:58;;;;;;;8.93;8.13;;;21.70;41.20;;;;;;5007658;28;20225;-79
2021/07/14 16:56:24;;;;;;;9.40;8.70;;;21.70;41.80;;;;;;4983999;28;20263;-79
2021/07/14 16:58:50;;;;;;;9.90;9.03;;;21.70;41.80;;;;;;5005206;28;20699;-79
2021/07/14 17:01:16;;;;;;;14.10;12.50;;;21.70;41.80;;;;;;5004743;28;20531;-79